sensor_id;sensor_type;location;lat;lon;timestamp;P1;durP1;ratioP1;P2;durP2;ratioP2
27800;SDS011;15181;49.112;11.930;2022-08-05T00:01:11;7.40;;;6.80;;
27800;SDS011;15181;49.112;11.930;2022-08-05T00:03:39;7.78;;;7.03;;
27800;SDS011;15181;49.112;11.930;2022-08-05T00:06:07;7.50;;;6.90;;
27800;SDS011;15181;49.112;11.930;2022-08-05T00:08:34;7.82;;;7.22;;
27800;SDS011;15181;49.112;11.930;2022-08-05T00:11:02;7.80;;;7.20;;
27800;SDS011;15181;49.112;11.930;2022-08-05T00:13:30;7.70;;;7.00;;
27800;SDS011;15181;49.112;11.930;2022-08-05T00:15:58;8.05;;;7.30;;
27800;SDS011;15181;49.112;11.930;2022-08-05T00:18:25;7.75;;;7.10;;
27800;SDS011;15181;49.112;11.930;2022-08-05T00:20:53;8.60;;;7.80;;
27800;SDS011;15181;49.112;11.930;2022-08-05T00:23:21;8.23;;;7.43;;
27800;SDS011;15181;49.112;11.930;2022-08-05T00:25:48;8.18;;;7.47;;
27800;SDS011;15181;49.112;11.930;2022-08-05T00:28:15;7.93;;;7.32;;
27800;SDS011;15181;49.112;11.930;2022-08-05T00:30:42;7.97;;;7.38;;
27800;SDS011;15181;49.112;11.930;2022-08-05T00:33:09;7.80;;;7.10;;
27800;SDS011;15181;49.112;11.930;2022-08-05T00:35:36;8.30;;;7.60;;
27800;SDS011;15181;49.112;11.930;2022-08-05T00:38:04;7.90;;;7.13;;
27800;SDS011;15181;49.112;11.930;2022-08-05T00:40:31;7.82;;;7.13;;
27800;SDS011;15181;49.112;11.930;2022-08-05T00:42:59;7.68;;;7.07;;
27800;SDS011;15181;49.112;11.930;2022-08-05T00:45:27;7.78;;;7.18;;
27800;SDS011;15181;49.112;11.930;2022-08-05T00:47:54;7.75;;;7.15;;
27800;SDS011;15181;49.112;11.930;2022-08-05T00:50:21;8.07;;;7.38;;
27800;SDS011;15181;49.112;11.930;2022-08-05T00:52:48;8.32;;;7.60;;
27800;SDS011;15181;49.112;11.930;2022-08-05T00:55:16;7.85;;;7.25;;
27800;SDS011;15181;49.112;11.930;2022-08-05T00:57:43;7.93;;;7.13;;
27800;SDS011;15181;49.112;11.930;2022-08-05T01:00:10;8.02;;;7.22;;
27800;SDS011;15181;49.112;11.930;2022-08-05T01:02:37;8.98;;;8.13;;
27800;SDS011;15181;49.112;11.930;2022-08-05T01:05:04;8.25;;;7.55;;
27800;SDS011;15181;49.112;11.930;2022-08-05T01:07:32;8.65;;;7.80;;
27800;SDS011;15181;49.112;11.930;2022-08-05T01:09:58;8.35;;;7.50;;
27800;SDS011;15181;49.112;11.930;2022-08-05T01:12:28;7.85;;;7.25;;
27800;SDS011;15181;49.112;11.930;2022-08-05T01:14:56;7.68;;;7.07;;
27800;SDS011;15181;49.112;11.930;2022-08-05T01:17:28;7.75;;;7.05;;
27800;SDS011;15181;49.112;11.930;2022-08-05T01:20:15;7.40;;;6.80;;
27800;SDS011;15181;49.112;11.930;2022-08-05T01:22:57;7.88;;;7.28;;
27800;SDS011;15181;49.112;11.930;2022-08-05T01:25:43;7.95;;;7.25;;
27800;SDS011;15181;49.112;11.930;2022-08-05T01:28:23;8.48;;;7.68;;
27800;SDS011;15181;49.112;11.930;2022-08-05T01:33:23;8.18;;;7.47;;
27800;SDS011;15181;49.112;11.930;2022-08-05T01:35:56;8.02;;;7.32;;
27800;SDS011;15181;49.112;11.930;2022-08-05T01:38:28;8.38;;;7.57;;
27800;SDS011;15181;49.112;11.930;2022-08-05T01:40:57;8.30;;;7.50;;
27800;SDS011;15181;49.112;11.930;2022-08-05T01:43:27;8.63;;;7.70;;
27800;SDS011;15181;49.112;11.930;2022-08-05T01:45:55;8.13;;;7.50;;
27800;SDS011;15181;49.112;11.930;2022-08-05T01:48:24;7.97;;;7.38;;
27800;SDS011;15181;49.112;11.930;2022-08-05T01:50:52;8.23;;;7.43;;
27800;SDS011;15181;49.112;11.930;2022-08-05T01:53:21;8.88;;;8.02;;
27800;SDS011;15181;49.112;11.930;2022-08-05T01:55:49;8.30;;;7.50;;
27800;SDS011;15181;49.112;11.930;2022-08-05T01:58:17;8.07;;;7.38;;
27800;SDS011;15181;49.112;11.930;2022-08-05T02:00:49;9.85;;;7.75;;
27800;SDS011;15181;49.112;11.930;2022-08-05T02:03:18;8.60;;;7.90;;
27800;SDS011;15181;49.112;11.930;2022-08-05T02:05:49;8.50;;;7.82;;
27800;SDS011;15181;49.112;11.930;2022-08-05T02:08:18;8.50;;;7.80;;
27800;SDS011;15181;49.112;11.930;2022-08-05T02:10:47;8.50;;;7.60;;
27800;SDS011;15181;49.112;11.930;2022-08-05T02:13:17;8.57;;;7.78;;
27800;SDS011;15181;49.112;11.930;2022-08-05T02:15:54;8.40;;;7.70;;
27800;SDS011;15181;49.112;11.930;2022-08-05T02:18:29;8.15;;;7.40;;
27800;SDS011;15181;49.112;11.930;2022-08-05T02:21:02;8.43;;;7.57;;
27800;SDS011;15181;49.112;11.930;2022-08-05T02:23:35;8.13;;;7.40;;
27800;SDS011;15181;49.112;11.930;2022-08-05T02:26:05;8.63;;;7.93;;
27800;SDS011;15181;49.112;11.930;2022-08-05T02:28:35;8.50;;;7.80;;
27800;SDS011;15181;49.112;11.930;2022-08-05T02:31:08;8.57;;;7.88;;
27800;SDS011;15181;49.112;11.930;2022-08-05T02:33:40;8.15;;;7.45;;
27800;SDS011;15181;49.112;11.930;2022-08-05T02:36:12;8.70;;;7.90;;
27800;SDS011;15181;49.112;11.930;2022-08-05T02:38:43;8.15;;;7.53;;
27800;SDS011;15181;49.112;11.930;2022-08-05T02:41:12;8.68;;;7.88;;
27800;SDS011;15181;49.112;11.930;2022-08-05T02:43:39;10.48;;;7.65;;
27800;SDS011;15181;49.112;11.930;2022-08-05T02:46:09;8.77;;;8.07;;
27800;SDS011;15181;49.112;11.930;2022-08-05T02:48:40;8.30;;;7.50;;
27800;SDS011;15181;49.112;11.930;2022-08-05T02:51:07;8.32;;;7.72;;
27800;SDS011;15181;49.112;11.930;2022-08-05T02:53:34;8.70;;;7.90;;
27800;SDS011;15181;49.112;11.930;2022-08-05T02:56:03;8.15;;;7.43;;
27800;SDS011;15181;49.112;11.930;2022-08-05T02:58:30;8.23;;;7.43;;
27800;SDS011;15181;49.112;11.930;2022-08-05T03:00:59;8.60;;;7.75;;
27800;SDS011;15181;49.112;11.930;2022-08-05T03:03:28;8.32;;;7.72;;
27800;SDS011;15181;49.112;11.930;2022-08-05T03:05:57;8.70;;;8.00;;
27800;SDS011;15181;49.112;11.930;2022-08-05T03:08:25;8.75;;;7.95;;
27800;SDS011;15181;49.112;11.930;2022-08-05T03:10:52;8.90;;;8.00;;
27800;SDS011;15181;49.112;11.930;2022-08-05T03:13:18;8.55;;;7.78;;
27800;SDS011;15181;49.112;11.930;2022-08-05T03:15:46;9.02;;;8.30;;
27800;SDS011;15181;49.112;11.930;2022-08-05T03:18:13;8.30;;;7.60;;
27800;SDS011;15181;49.112;11.930;2022-08-05T03:20:41;9.40;;;8.60;;
27800;SDS011;15181;49.112;11.930;2022-08-05T03:23:08;8.55;;;7.85;;
27800;SDS011;15181;49.112;11.930;2022-08-05T03:25:37;8.52;;;7.80;;
27800;SDS011;15181;49.112;11.930;2022-08-05T03:28:04;8.55;;;7.85;;
27800;SDS011;15181;49.112;11.930;2022-08-05T03:30:33;8.55;;;7.75;;
27800;SDS011;15181;49.112;11.930;2022-08-05T03:33:00;8.73;;;8.02;;
27800;SDS011;15181;49.112;11.930;2022-08-05T03:35:29;8.63;;;7.80;;
27800;SDS011;15181;49.112;11.930;2022-08-05T03:37:58;8.80;;;8.10;;
27800;SDS011;15181;49.112;11.930;2022-08-05T03:40:26;8.10;;;7.50;;
27800;SDS011;15181;49.112;11.930;2022-08-05T03:42:54;9.02;;;8.25;;
27800;SDS011;15181;49.112;11.930;2022-08-05T03:45:21;8.32;;;7.60;;
27800;SDS011;15181;49.112;11.930;2022-08-05T03:47:48;8.90;;;8.10;;
27800;SDS011;15181;49.112;11.930;2022-08-05T03:50:14;8.77;;;8.07;;
27800;SDS011;15181;49.112;11.930;2022-08-05T03:52:43;8.45;;;7.82;;
27800;SDS011;15181;49.112;11.930;2022-08-05T03:55:17;8.75;;;7.90;;
27800;SDS011;15181;49.112;11.930;2022-08-05T03:57:50;8.63;;;7.90;;
27800;SDS011;15181;49.112;11.930;2022-08-05T04:00:18;8.38;;;7.68;;
27800;SDS011;15181;49.112;11.930;2022-08-05T04:02:50;8.57;;;7.88;;
27800;SDS011;15181;49.112;11.930;2022-08-05T04:05:20;9.30;;;8.40;;
27800;SDS011;15181;49.112;11.930;2022-08-05T04:07:48;9.07;;;8.23;;
27800;SDS011;15181;49.112;11.930;2022-08-05T04:10:17;9.10;;;8.18;;
27800;SDS011;15181;49.112;11.930;2022-08-05T04:12:44;8.30;;;7.60;;
27800;SDS011;15181;49.112;11.930;2022-08-05T04:15:11;8.38;;;7.57;;
27800;SDS011;15181;49.112;11.930;2022-08-05T04:17:38;8.30;;;7.60;;
27800;SDS011;15181;49.112;11.930;2022-08-05T04:20:05;8.50;;;7.80;;
27800;SDS011;15181;49.112;11.930;2022-08-05T04:22:33;8.52;;;7.72;;
27800;SDS011;15181;49.112;11.930;2022-08-05T04:25:00;8.48;;;7.80;;
27800;SDS011;15181;49.112;11.930;2022-08-05T04:27:28;8.63;;;7.85;;
27800;SDS011;15181;49.112;11.930;2022-08-05T04:29:55;8.90;;;8.02;;
27800;SDS011;15181;49.112;11.930;2022-08-05T04:32:22;8.15;;;7.53;;
27800;SDS011;15181;49.112;11.930;2022-08-05T04:34:49;8.85;;;8.05;;
27800;SDS011;15181;49.112;11.930;2022-08-05T04:37:16;8.25;;;7.53;;
27800;SDS011;15181;49.112;11.930;2022-08-05T04:39:42;8.73;;;7.95;;
27800;SDS011;15181;49.112;11.930;2022-08-05T04:42:09;8.70;;;7.80;;
27800;SDS011;15181;49.112;11.930;2022-08-05T04:44:37;8.95;;;7.85;;
27800;SDS011;15181;49.112;11.930;2022-08-05T04:47:04;8.63;;;7.93;;
27800;SDS011;15181;49.112;11.930;2022-08-05T04:49:31;8.43;;;7.72;;
27800;SDS011;15181;49.112;11.930;2022-08-05T04:51:58;9.10;;;8.20;;
27800;SDS011;15181;49.112;11.930;2022-08-05T04:54:25;8.93;;;8.00;;
27800;SDS011;15181;49.112;11.930;2022-08-05T04:56:52;8.82;;;7.93;;
27800;SDS011;15181;49.112;11.930;2022-08-05T04:59:19;8.90;;;8.05;;
27800;SDS011;15181;49.112;11.930;2022-08-05T05:01:47;11.68;;;8.48;;
27800;SDS011;15181;49.112;11.930;2022-08-05T05:04:14;9.27;;;8.38;;
27800;SDS011;15181;49.112;11.930;2022-08-05T05:06:41;8.85;;;8.15;;
27800;SDS011;15181;49.112;11.930;2022-08-05T05:09:09;10.18;;;8.20;;
27800;SDS011;15181;49.112;11.930;2022-08-05T05:11:36;8.93;;;8.23;;
27800;SDS011;15181;49.112;11.930;2022-08-05T05:14:03;8.85;;;8.18;;
27800;SDS011;15181;49.112;11.930;2022-08-05T05:16:30;9.85;;;8.88;;
27800;SDS011;15181;49.112;11.930;2022-08-05T05:18:58;8.75;;;7.97;;
27800;SDS011;15181;49.112;11.930;2022-08-05T05:21:25;10.63;;;8.40;;
27800;SDS011;15181;49.112;11.930;2022-08-05T05:23:52;9.50;;;8.60;;
27800;SDS011;15181;49.112;11.930;2022-08-05T05:26:19;9.27;;;8.40;;
27800;SDS011;15181;49.112;11.930;2022-08-05T05:28:46;9.73;;;8.70;;
27800;SDS011;15181;49.112;11.930;2022-08-05T05:31:13;9.82;;;8.32;;
27800;SDS011;15181;49.112;11.930;2022-08-05T05:33:40;18.25;;;9.13;;
27800;SDS011;15181;49.112;11.930;2022-08-05T05:36:08;9.00;;;8.20;;
27800;SDS011;15181;49.112;11.930;2022-08-05T05:38:35;8.95;;;8.10;;
27800;SDS011;15181;49.112;11.930;2022-08-05T05:41:02;8.90;;;8.10;;
27800;SDS011;15181;49.112;11.930;2022-08-05T05:43:29;9.20;;;8.32;;
27800;SDS011;15181;49.112;11.930;2022-08-05T05:45:56;9.50;;;8.70;;
27800;SDS011;15181;49.112;11.930;2022-08-05T05:48:23;9.27;;;8.43;;
27800;SDS011;15181;49.112;11.930;2022-08-05T05:50:49;9.15;;;8.45;;
27800;SDS011;15181;49.112;11.930;2022-08-05T05:53:18;9.00;;;8.30;;
27800;SDS011;15181;49.112;11.930;2022-08-05T05:55:45;9.00;;;8.18;;
27800;SDS011;15181;49.112;11.930;2022-08-05T05:58:12;9.10;;;8.40;;
27800;SDS011;15181;49.112;11.930;2022-08-05T06:00:39;9.18;;;8.38;;
27800;SDS011;15181;49.112;11.930;2022-08-05T06:03:05;8.82;;;8.02;;
27800;SDS011;15181;49.112;11.930;2022-08-05T06:05:33;10.75;;;8.70;;
27800;SDS011;15181;49.112;11.930;2022-08-05T06:08:00;9.52;;;8.63;;
27800;SDS011;15181;49.112;11.930;2022-08-05T06:10:28;9.32;;;8.52;;
27800;SDS011;15181;49.112;11.930;2022-08-05T06:12:55;8.85;;;8.02;;
27800;SDS011;15181;49.112;11.930;2022-08-05T06:15:22;8.57;;;7.88;;
27800;SDS011;15181;49.112;11.930;2022-08-05T06:17:49;8.77;;;7.85;;
27800;SDS011;15181;49.112;11.930;2022-08-05T06:20:16;8.25;;;7.55;;
27800;SDS011;15181;49.112;11.930;2022-08-05T06:22:43;9.07;;;8.27;;
27800;SDS011;15181;49.112;11.930;2022-08-05T06:25:10;11.07;;;7.55;;
27800;SDS011;15181;49.112;11.930;2022-08-05T06:27:38;8.48;;;7.78;;
27800;SDS011;15181;49.112;11.930;2022-08-05T06:30:06;10.43;;;8.23;;
27800;SDS011;15181;49.112;11.930;2022-08-05T06:32:34;8.10;;;7.40;;
27800;SDS011;15181;49.112;11.930;2022-08-05T06:35:01;9.32;;;7.35;;
27800;SDS011;15181;49.112;11.930;2022-08-05T06:37:28;8.05;;;7.40;;
27800;SDS011;15181;49.112;11.930;2022-08-05T06:39:55;7.50;;;6.90;;
27800;SDS011;15181;49.112;11.930;2022-08-05T06:42:21;9.30;;;7.78;;
27800;SDS011;15181;49.112;11.930;2022-08-05T06:44:49;9.95;;;7.43;;
27800;SDS011;15181;49.112;11.930;2022-08-05T06:47:16;8.35;;;7.65;;
27800;SDS011;15181;49.112;11.930;2022-08-05T06:49:43;7.93;;;7.32;;
27800;SDS011;15181;49.112;11.930;2022-08-05T06:52:10;10.05;;;7.30;;
27800;SDS011;15181;49.112;11.930;2022-08-05T06:54:37;8.60;;;7.40;;
27800;SDS011;15181;49.112;11.930;2022-08-05T06:57:04;7.80;;;7.20;;
27800;SDS011;15181;49.112;11.930;2022-08-05T06:59:31;8.70;;;7.43;;
27800;SDS011;15181;49.112;11.930;2022-08-05T07:01:59;7.65;;;7.05;;
27800;SDS011;15181;49.112;11.930;2022-08-05T07:04:25;8.40;;;7.47;;
27800;SDS011;15181;49.112;11.930;2022-08-05T07:06:54;8.05;;;7.35;;
27800;SDS011;15181;49.112;11.930;2022-08-05T07:09:21;8.00;;;7.30;;
27800;SDS011;15181;49.112;11.930;2022-08-05T07:11:47;7.97;;;7.28;;
27800;SDS011;15181;49.112;11.930;2022-08-05T07:14:15;8.48;;;7.35;;
27800;SDS011;15181;49.112;11.930;2022-08-05T07:17:15;8.57;;;7.43;;
27800;SDS011;15181;49.112;11.930;2022-08-05T07:19:42;8.02;;;7.43;;
27800;SDS011;15181;49.112;11.930;2022-08-05T07:22:10;10.98;;;7.28;;
27800;SDS011;15181;49.112;11.930;2022-08-05T07:24:36;8.40;;;7.60;;
27800;SDS011;15181;49.112;11.930;2022-08-05T07:27:03;8.00;;;7.20;;
27800;SDS011;15181;49.112;11.930;2022-08-05T07:29:30;7.68;;;7.07;;
27800;SDS011;15181;49.112;11.930;2022-08-05T07:31:57;7.97;;;7.30;;
27800;SDS011;15181;49.112;11.930;2022-08-05T07:34:26;8.18;;;7.38;;
27800;SDS011;15181;49.112;11.930;2022-08-05T07:36:52;8.15;;;7.38;;
27800;SDS011;15181;49.112;11.930;2022-08-05T07:39:19;8.25;;;7.18;;
27800;SDS011;15181;49.112;11.930;2022-08-05T07:41:46;14.27;;;7.78;;
27800;SDS011;15181;49.112;11.930;2022-08-05T07:44:13;9.25;;;7.50;;
27800;SDS011;15181;49.112;11.930;2022-08-05T07:46:40;7.40;;;6.72;;
27800;SDS011;15181;49.112;11.930;2022-08-05T07:49:06;7.70;;;6.90;;
27800;SDS011;15181;49.112;11.930;2022-08-05T07:51:35;9.18;;;7.20;;
27800;SDS011;15181;49.112;11.930;2022-08-05T07:54:04;7.40;;;6.53;;
27800;SDS011;15181;49.112;11.930;2022-08-05T07:56:31;7.70;;;6.35;;
27800;SDS011;15181;49.112;11.930;2022-08-05T07:58:58;7.43;;;6.65;;
27800;SDS011;15181;49.112;11.930;2022-08-05T08:01:24;8.02;;;7.10;;
27800;SDS011;15181;49.112;11.930;2022-08-05T08:03:51;7.75;;;7.07;;
27800;SDS011;15181;49.112;11.930;2022-08-05T08:06:18;7.32;;;6.55;;
27800;SDS011;15181;49.112;11.930;2022-08-05T08:08:46;7.13;;;6.53;;
27800;SDS011;15181;49.112;11.930;2022-08-05T08:11:13;7.43;;;6.70;;
27800;SDS011;15181;49.112;11.930;2022-08-05T08:13:40;7.00;;;6.40;;
27800;SDS011;15181;49.112;11.930;2022-08-05T08:16:07;6.85;;;6.18;;
27800;SDS011;15181;49.112;11.930;2022-08-05T08:18:34;7.25;;;6.55;;
27800;SDS011;15181;49.112;11.930;2022-08-05T08:21:01;6.80;;;6.30;;
27800;SDS011;15181;49.112;11.930;2022-08-05T08:23:28;7.10;;;6.47;;
27800;SDS011;15181;49.112;11.930;2022-08-05T08:25:56;7.65;;;6.70;;
27800;SDS011;15181;49.112;11.930;2022-08-05T08:28:23;9.88;;;6.68;;
27800;SDS011;15181;49.112;11.930;2022-08-05T08:30:50;9.25;;;6.22;;
27800;SDS011;15181;49.112;11.930;2022-08-05T08:33:17;6.75;;;6.15;;
27800;SDS011;15181;49.112;11.930;2022-08-05T08:35:44;7.03;;;6.15;;
27800;SDS011;15181;49.112;11.930;2022-08-05T08:38:10;6.95;;;6.25;;
27800;SDS011;15181;49.112;11.930;2022-08-05T08:40:40;7.50;;;6.75;;
27800;SDS011;15181;49.112;11.930;2022-08-05T08:43:10;6.93;;;6.35;;
27800;SDS011;15181;49.112;11.930;2022-08-05T08:45:38;6.85;;;6.25;;
27800;SDS011;15181;49.112;11.930;2022-08-05T08:48:06;7.53;;;6.82;;
27800;SDS011;15181;49.112;11.930;2022-08-05T08:50:35;7.22;;;6.63;;
27800;SDS011;15181;49.112;11.930;2022-08-05T08:53:04;7.30;;;6.53;;
27800;SDS011;15181;49.112;11.930;2022-08-05T08:55:34;7.18;;;6.57;;
27800;SDS011;15181;49.112;11.930;2022-08-05T08:58:01;8.75;;;7.00;;
27800;SDS011;15181;49.112;11.930;2022-08-05T09:00:30;7.10;;;6.47;;
27800;SDS011;15181;49.112;11.930;2022-08-05T09:02:57;6.70;;;6.10;;
27800;SDS011;15181;49.112;11.930;2022-08-05T09:05:24;6.80;;;6.20;;
27800;SDS011;15181;49.112;11.930;2022-08-05T09:07:51;7.90;;;6.65;;
27800;SDS011;15181;49.112;11.930;2022-08-05T09:10:18;7.15;;;6.45;;
27800;SDS011;15181;49.112;11.930;2022-08-05T09:12:45;7.28;;;6.50;;
27800;SDS011;15181;49.112;11.930;2022-08-05T09:15:13;7.82;;;7.07;;
27800;SDS011;15181;49.112;11.930;2022-08-05T09:17:41;7.82;;;7.10;;
27800;SDS011;15181;49.112;11.930;2022-08-05T09:20:09;7.15;;;6.45;;
27800;SDS011;15181;49.112;11.930;2022-08-05T09:25:37;7.55;;;6.60;;
27800;SDS011;15181;49.112;11.930;2022-08-05T09:28:08;7.13;;;6.43;;
27800;SDS011;15181;49.112;11.930;2022-08-05T09:30:37;7.68;;;6.97;;
27800;SDS011;15181;49.112;11.930;2022-08-05T09:33:09;10.45;;;7.07;;
27800;SDS011;15181;49.112;11.930;2022-08-05T09:35:36;7.30;;;6.70;;
27800;SDS011;15181;49.112;11.930;2022-08-05T09:38:17;7.13;;;6.47;;
27800;SDS011;15181;49.112;11.930;2022-08-05T09:40:44;7.00;;;6.40;;
27800;SDS011;15181;49.112;11.930;2022-08-05T09:43:25;7.68;;;6.88;;
27800;SDS011;15181;49.112;11.930;2022-08-05T09:45:53;6.97;;;6.25;;
27800;SDS011;15181;49.112;11.930;2022-08-05T09:48:22;6.80;;;5.93;;
27800;SDS011;15181;49.112;11.930;2022-08-05T09:50:51;7.43;;;6.80;;
27800;SDS011;15181;49.112;11.930;2022-08-05T09:53:20;7.03;;;6.43;;
27800;SDS011;15181;49.112;11.930;2022-08-05T09:55:50;7.30;;;6.53;;
27800;SDS011;15181;49.112;11.930;2022-08-05T09:58:20;6.85;;;6.25;;
27800;SDS011;15181;49.112;11.930;2022-08-05T10:00:51;8.13;;;6.40;;
27800;SDS011;15181;49.112;11.930;2022-08-05T10:03:24;8.40;;;7.63;;
27800;SDS011;15181;49.112;11.930;2022-08-05T10:06:01;6.65;;;6.15;;
27800;SDS011;15181;49.112;11.930;2022-08-05T10:08:29;7.82;;;6.30;;
27800;SDS011;15181;49.112;11.930;2022-08-05T10:10:56;6.65;;;6.05;;
27800;SDS011;15181;49.112;11.930;2022-08-05T10:13:27;6.93;;;6.22;;
27800;SDS011;15181;49.112;11.930;2022-08-05T10:15:55;6.70;;;6.10;;
27800;SDS011;15181;49.112;11.930;2022-08-05T10:18:25;6.82;;;5.93;;
27800;SDS011;15181;49.112;11.930;2022-08-05T10:20:56;6.10;;;5.50;;
27800;SDS011;15181;49.112;11.930;2022-08-05T10:23:26;6.28;;;5.70;;
27800;SDS011;15181;49.112;11.930;2022-08-05T10:25:54;6.20;;;5.60;;
27800;SDS011;15181;49.112;11.930;2022-08-05T10:28:22;11.27;;;5.80;;
27800;SDS011;15181;49.112;11.930;2022-08-05T10:30:49;5.78;;;5.28;;
27800;SDS011;15181;49.112;11.930;2022-08-05T10:33:17;6.35;;;5.50;;
27800;SDS011;15181;49.112;11.930;2022-08-05T10:35:46;6.20;;;5.60;;
27800;SDS011;15181;49.112;11.930;2022-08-05T10:38:13;6.30;;;5.70;;
27800;SDS011;15181;49.112;11.930;2022-08-05T10:40:42;5.97;;;5.47;;
27800;SDS011;15181;49.112;11.930;2022-08-05T10:43:15;6.13;;;5.63;;
27800;SDS011;15181;49.112;11.930;2022-08-05T10:45:57;5.80;;;5.30;;
27800;SDS011;15181;49.112;11.930;2022-08-05T10:51:01;6.30;;;5.70;;
27800;SDS011;15181;49.112;11.930;2022-08-05T10:53:37;6.05;;;5.47;;
27800;SDS011;15181;49.112;11.930;2022-08-05T10:56:06;6.30;;;5.80;;
27800;SDS011;15181;49.112;11.930;2022-08-05T10:58:34;6.30;;;5.75;;
27800;SDS011;15181;49.112;11.930;2022-08-05T11:01:12;6.20;;;5.70;;
27800;SDS011;15181;49.112;11.930;2022-08-05T11:06:29;5.88;;;5.38;;
27800;SDS011;15181;49.112;11.930;2022-08-05T11:09:09;6.40;;;5.45;;
27800;SDS011;15181;49.112;11.930;2022-08-05T11:11:43;6.25;;;5.70;;
27800;SDS011;15181;49.112;11.930;2022-08-05T11:14:11;6.05;;;5.35;;
27800;SDS011;15181;49.112;11.930;2022-08-05T11:16:38;5.78;;;5.18;;
27800;SDS011;15181;49.112;11.930;2022-08-05T11:21:55;6.28;;;5.63;;
27800;SDS011;15181;49.112;11.930;2022-08-05T11:24:42;5.93;;;5.43;;
27800;SDS011;15181;49.112;11.930;2022-08-05T11:27:27;5.85;;;5.25;;
27800;SDS011;15181;49.112;11.930;2022-08-05T11:29:58;6.32;;;5.50;;
27800;SDS011;15181;49.112;11.930;2022-08-05T11:32:25;6.90;;;5.60;;
27800;SDS011;15181;49.112;11.930;2022-08-05T11:34:53;5.40;;;5.00;;
27800;SDS011;15181;49.112;11.930;2022-08-05T11:37:41;6.30;;;5.70;;
27800;SDS011;15181;49.112;11.930;2022-08-05T11:43:25;5.82;;;5.32;;
27800;SDS011;15181;49.112;11.930;2022-08-05T11:45:52;7.07;;;6.38;;
27800;SDS011;15181;49.112;11.930;2022-08-05T11:48:19;6.10;;;5.60;;
27800;SDS011;15181;49.112;11.930;2022-08-05T11:50:46;7.10;;;5.15;;
27800;SDS011;15181;49.112;11.930;2022-08-05T11:53:15;6.25;;;5.28;;
27800;SDS011;15181;49.112;11.930;2022-08-05T11:55:52;6.47;;;5.78;;
27800;SDS011;15181;49.112;11.930;2022-08-05T11:58:23;6.10;;;5.50;;
27800;SDS011;15181;49.112;11.930;2022-08-05T12:00:59;6.07;;;5.55;;
27800;SDS011;15181;49.112;11.930;2022-08-05T12:03:27;6.65;;;5.80;;
27800;SDS011;15181;49.112;11.930;2022-08-05T12:05:56;6.05;;;5.60;;
27800;SDS011;15181;49.112;11.930;2022-08-05T12:08:26;5.80;;;5.30;;
27800;SDS011;15181;49.112;11.930;2022-08-05T12:10:53;6.22;;;5.72;;
27800;SDS011;15181;49.112;11.930;2022-08-05T12:13:24;6.38;;;5.38;;
27800;SDS011;15181;49.112;11.930;2022-08-05T12:15:51;6.53;;;5.93;;
27800;SDS011;15181;49.112;11.930;2022-08-05T12:18:18;6.75;;;6.15;;
27800;SDS011;15181;49.112;11.930;2022-08-05T12:20:52;6.67;;;6.07;;
27800;SDS011;15181;49.112;11.930;2022-08-05T12:23:18;6.35;;;5.85;;
27800;SDS011;15181;49.112;11.930;2022-08-05T12:25:50;6.93;;;5.68;;
27800;SDS011;15181;49.112;11.930;2022-08-05T12:28:34;6.18;;;5.68;;
27800;SDS011;15181;49.112;11.930;2022-08-05T12:31:02;6.43;;;5.78;;
27800;SDS011;15181;49.112;11.930;2022-08-05T12:33:30;6.10;;;5.60;;
27800;SDS011;15181;49.112;11.930;2022-08-05T12:35:58;6.25;;;5.65;;
27800;SDS011;15181;49.112;11.930;2022-08-05T12:38:26;8.23;;;6.40;;
27800;SDS011;15181;49.112;11.930;2022-08-05T12:40:56;6.78;;;6.18;;
27800;SDS011;15181;49.112;11.930;2022-08-05T12:43:23;6.43;;;5.88;;
27800;SDS011;15181;49.112;11.930;2022-08-05T12:45:50;6.40;;;5.90;;
27800;SDS011;15181;49.112;11.930;2022-08-05T12:48:17;6.30;;;5.80;;
27800;SDS011;15181;49.112;11.930;2022-08-05T12:53:39;6.47;;;5.80;;
27800;SDS011;15181;49.112;11.930;2022-08-05T12:56:15;6.38;;;5.88;;
27800;SDS011;15181;49.112;11.930;2022-08-05T12:58:44;7.10;;;6.40;;
27800;SDS011;15181;49.112;11.930;2022-08-05T13:01:12;6.43;;;5.93;;
27800;SDS011;15181;49.112;11.930;2022-08-05T13:03:40;6.57;;;6.07;;
27800;SDS011;15181;49.112;11.930;2022-08-05T13:06:07;6.72;;;6.13;;
27800;SDS011;15181;49.112;11.930;2022-08-05T13:08:37;8.20;;;5.95;;
27800;SDS011;15181;49.112;11.930;2022-08-05T13:11:04;6.43;;;5.93;;
27800;SDS011;15181;49.112;11.930;2022-08-05T13:13:33;6.60;;;5.90;;
27800;SDS011;15181;49.112;11.930;2022-08-05T13:16:10;6.40;;;5.90;;
27800;SDS011;15181;49.112;11.930;2022-08-05T13:18:38;6.50;;;5.90;;
27800;SDS011;15181;49.112;11.930;2022-08-05T13:21:05;6.90;;;6.20;;
27800;SDS011;15181;49.112;11.930;2022-08-05T13:23:33;6.38;;;5.88;;
27800;SDS011;15181;49.112;11.930;2022-08-05T13:26:00;6.60;;;6.10;;
27800;SDS011;15181;49.112;11.930;2022-08-05T13:28:27;6.40;;;5.80;;
27800;SDS011;15181;49.112;11.930;2022-08-05T13:30:55;6.50;;;5.88;;
27800;SDS011;15181;49.112;11.930;2022-08-05T13:33:22;6.43;;;5.88;;
27800;SDS011;15181;49.112;11.930;2022-08-05T13:35:49;6.70;;;6.10;;
27800;SDS011;15181;49.112;11.930;2022-08-05T13:38:16;7.13;;;6.10;;
27800;SDS011;15181;49.112;11.930;2022-08-05T13:40:43;6.30;;;5.80;;
27800;SDS011;15181;49.112;11.930;2022-08-05T13:43:10;6.68;;;5.97;;
27800;SDS011;15181;49.112;11.930;2022-08-05T13:45:37;6.47;;;5.80;;
27800;SDS011;15181;49.112;11.930;2022-08-05T13:48:06;6.38;;;5.88;;
27800;SDS011;15181;49.112;11.930;2022-08-05T13:50:32;6.35;;;5.88;;
27800;SDS011;15181;49.112;11.930;2022-08-05T13:52:59;6.63;;;6.13;;
27800;SDS011;15181;49.112;11.930;2022-08-05T13:55:26;6.30;;;5.80;;
27800;SDS011;15181;49.112;11.930;2022-08-05T13:57:53;7.72;;;6.38;;
27800;SDS011;15181;49.112;11.930;2022-08-05T14:00:20;7.55;;;6.03;;
27800;SDS011;15181;49.112;11.930;2022-08-05T14:02:47;6.88;;;6.18;;
27800;SDS011;15181;49.112;11.930;2022-08-05T14:05:15;7.13;;;6.50;;
27800;SDS011;15181;49.112;11.930;2022-08-05T14:07:42;6.75;;;5.90;;
27800;SDS011;15181;49.112;11.930;2022-08-05T14:10:11;6.85;;;6.20;;
27800;SDS011;15181;49.112;11.930;2022-08-05T14:12:39;6.53;;;5.95;;
27800;SDS011;15181;49.112;11.930;2022-08-05T14:15:07;7.30;;;6.70;;
27800;SDS011;15181;49.112;11.930;2022-08-05T14:17:34;7.50;;;6.80;;
27800;SDS011;15181;49.112;11.930;2022-08-05T14:20:02;7.43;;;6.82;;
27800;SDS011;15181;49.112;11.930;2022-08-05T14:22:31;7.90;;;7.20;;
27800;SDS011;15181;49.112;11.930;2022-08-05T14:24:58;7.05;;;6.30;;
27800;SDS011;15181;49.112;11.930;2022-08-05T14:27:25;8.35;;;6.35;;
27800;SDS011;15181;49.112;11.930;2022-08-05T14:29:51;7.43;;;6.72;;
27800;SDS011;15181;49.112;11.930;2022-08-05T14:32:18;6.72;;;6.20;;
27800;SDS011;15181;49.112;11.930;2022-08-05T14:34:45;6.90;;;6.40;;
27800;SDS011;15181;49.112;11.930;2022-08-05T14:37:12;7.10;;;6.35;;
27800;SDS011;15181;49.112;11.930;2022-08-05T14:39:40;6.90;;;6.30;;
27800;SDS011;15181;49.112;11.930;2022-08-05T14:42:07;7.53;;;6.93;;
27800;SDS011;15181;49.112;11.930;2022-08-05T14:44:34;6.95;;;6.45;;
27800;SDS011;15181;49.112;11.930;2022-08-05T14:47:00;7.20;;;6.60;;
27800;SDS011;15181;49.112;11.930;2022-08-05T14:49:27;6.93;;;6.32;;
27800;SDS011;15181;49.112;11.930;2022-08-05T14:51:54;7.70;;;6.90;;
27800;SDS011;15181;49.112;11.930;2022-08-05T14:54:21;8.60;;;6.70;;
27800;SDS011;15181;49.112;11.930;2022-08-05T14:56:49;7.20;;;6.60;;
27800;SDS011;15181;49.112;11.930;2022-08-05T14:59:16;7.20;;;6.60;;
27800;SDS011;15181;49.112;11.930;2022-08-05T15:01:44;6.78;;;6.20;;